Time,TemperatureF,DewpointF,PressureIn,WindDirection,WindDirectionDegrees,WindSpeedMPH,WindSpeedGustMPH,Humidity,HourlyPrecipIn,Conditions,Clouds,dailyrainin,SolarRadiationWatts/m^2,SoftwareType,DateUTC
2013-06-10 00:14:00,63.6,60.0,29.81,ENE,67,0.0,0.0,88,0.00,,,0.22,0,weatherlink.com 1.10,2013-06-10 05:14:00,
2013-06-10 00:29:00,63.2,60.0,29.81,ENE,67,0.0,1.0,89,0.00,,,0.22,0,weatherlink.com 1.10,2013-06-10 05:29:00,
2013-06-10 00:44:00,63.2,60.0,29.81,ENE,67,0.0,2.0,90,0.00,,,0.00,0,weatherlink.com 1.10,2013-06-10 05:44:00,
2013-06-10 00:59:00,63.0,60.0,29.81,ENE,67,0.0,1.0,90,0.00,,,0.00,0,weatherlink.com 1.10,2013-06-10 05:59:00,
2013-06-10 01:14:00,62.2,60.0,29.81,ENE,67,0.0,0.0,91,0.00,,,0.00,0,weatherlink.com 1.10,2013-06-10 06:14:00,
2013-06-10 01:29:00,62.5,60.0,29.81,ENE,67,0.0,2.0,91,0.00,,,0.00,0,weatherlink.com 1.10,2013-06-10 06:29:00,
2013-06-10 01:44:00,62.6,60.0,29.81,ENE,67,3.0,3.0,91,0.00,,,0.00,0,weatherlink.com 1.10,2013-06-10 06:44:00,
2013-06-10 01:59:00,62.8,60.0,29.81,ENE,67,1.0,1.0,90,0.00,,,0.00,0,weatherlink.com 1.10,2013-06-10 06:59:00,
2013-06-10 02:14:00,62.4,60.0,29.80,ENE,67,0.0,2.0,90,0.00,,,0.00,0,weatherlink.com 1.10,2013-06-10 07:14:00,
2013-06-10 02:29:00,62.0,59.0,29.80,ENE,67,0.0,1.0,90,0.00,,,0.00,0,weatherlink.com 1.10,2013-06-10 07:29:00,
2013-06-10 02:44:00,62.1,60.0,29.80,ENE,67,0.0,2.0,91,0.00,,,0.00,0,weatherlink.com 1.10,2013-06-10 07:44:00,
2013-06-10 02:59:00,62.0,59.0,29.80,ENE,67,0.0,1.0,91,0.00,,,0.00,0,weatherlink.com 1.10,2013-06-10 07:59:00,
2013-06-10 03:14:00,61.3,59.0,29.81,ENE,67,0.0,0.0,91,0.00,,,0.00,0,weatherlink.com 1.10,2013-06-10 08:14:00,
2013-06-10 03:29:00,61.0,59.0,29.80,ENE,67,0.0,3.0,92,0.00,,,0.00,0,weatherlink.com 1.10,2013-06-10 08:29:00,
2013-06-10 03:44:00,61.1,59.0,29.81,East,86,0.0,2.0,92,0.00,,,0.00,0,weatherlink.com 1.10,2013-06-10 08:44:00,
2013-06-10 03:59:00,61.3,59.0,29.82,East,86,0.0,2.0,91,0.00,,,0.00,0,weatherlink.com 1.10,2013-06-10 08:59:00,
2013-06-10 04:14:00,61.3,58.0,29.82,East,86,0.0,1.0,90,0.00,,,0.00,0,weatherlink.com 1.10,2013-06-10 09:14:00,
2013-06-10 04:29:00,60.9,58.0,29.82,East,86,0.0,2.0,90,0.00,,,0.00,0,weatherlink.com 1.10,2013-06-10 09:29:00,
2013-06-10 04:44:00,60.7,58.0,29.82,East,86,0.0,2.0,90,0.00,,,0.00,0,weatherlink.com 1.10,2013-06-10 09:44:00,
2013-06-10 04:59:00,61.8,58.0,29.82,WNW,294,3.0,5.0,87,0.00,,,0.00,0,weatherlink.com 1.10,2013-06-10 09:59:00,
2013-06-10 05:14:00,61.7,58.0,29.82,WNW,294,0.0,2.0,86,0.00,,,0.00,0,weatherlink.com 1.10,2013-06-10 10:14:00,
2013-06-10 05:29:00,61.4,57.0,29.83,WNW,294,2.0,2.0,86,0.00,,,0.00,0,weatherlink.com 1.10,2013-06-10 10:29:00,
2013-06-10 05:44:00,61.2,57.0,29.83,WNW,294,2.0,3.0,87,0.00,,,0.00,0,weatherlink.com 1.10,2013-06-10 10:44:00,
2013-06-10 06:00:00,60.9,57.0,29.83,WNW,294,0.0,3.0,87,0.00,,,0.00,5,weatherlink.com 1.10,2013-06-10 11:00:00,
2013-06-10 06:15:00,60.6,57.0,29.84,WNW,294,0.0,3.0,88,0.00,,,0.00,12,weatherlink.com 1.10,2013-06-10 11:15:00,
2013-06-10 06:30:00,60.4,57.0,29.84,WNW,294,1.0,3.0,89,0.00,,,0.00,18,weatherlink.com 1.10,2013-06-10 11:30:00,
2013-06-10 06:45:00,60.8,58.0,29.84,WNW,294,0.0,4.0,90,0.00,,,0.00,30,weatherlink.com 1.10,2013-06-10 11:45:00,
2013-06-10 07:00:00,61.7,59.0,29.84,WNW,292,0.0,4.0,90,0.00,,,0.00,98,weatherlink.com 1.10,2013-06-10 12:00:00,
2013-06-10 07:15:00,63.1,60.0,29.84,WNW,292,1.0,2.0,90,0.00,,,0.00,144,weatherlink.com 1.10,2013-06-10 12:15:00,
2013-06-10 07:30:00,64.5,61.0,29.84,WNW,292,0.0,4.0,87,0.00,,,0.00,192,weatherlink.com 1.10,2013-06-10 12:30:00,
2013-06-10 07:45:00,65.7,61.0,29.84,NW,306,1.0,4.0,84,0.00,,,0.00,234,weatherlink.com 1.10,2013-06-10 12:45:00,
2013-06-10 08:00:00,67.1,62.0,29.85,NW,308,1.0,4.0,83,0.00,,,0.00,288,weatherlink.com 1.10,2013-06-10 13:00:00,
2013-06-10 08:15:00,68.2,62.0,29.85,NW,309,3.0,3.0,81,0.00,,,0.00,336,weatherlink.com 1.10,2013-06-10 13:15:00,
2013-06-10 08:30:00,69.3,61.0,29.86,NW,310,1.0,4.0,76,0.00,,,0.00,376,weatherlink.com 1.10,2013-06-10 13:30:00,
2013-06-10 08:45:00,70.3,62.0,29.87,NW,309,1.0,4.0,76,0.00,,,0.00,424,weatherlink.com 1.10,2013-06-10 13:45:00,
2013-06-10 09:00:00,71.5,62.0,29.86,NW,318,3.0,5.0,73,0.00,,,0.00,471,weatherlink.com 1.10,2013-06-10 14:00:00,
2013-06-10 09:15:00,71.7,63.0,29.86,NW,323,1.0,4.0,74,0.00,,,0.00,512,weatherlink.com 1.10,2013-06-10 14:15:00,
2013-06-10 09:30:00,72.1,62.0,29.86,NW,313,0.0,6.0,71,0.00,,,0.00,557,weatherlink.com 1.10,2013-06-10 14:30:00,
2013-06-10 09:45:00,72.1,61.0,29.86,NW,307,0.0,4.0,69,0.00,,,0.00,599,weatherlink.com 1.10,2013-06-10 14:45:00,
2013-06-10 10:01:00,73.9,62.0,29.86,NW,309,1.0,5.0,67,0.00,,,0.00,640,weatherlink.com 1.10,2013-06-10 15:01:00,
2013-06-10 10:16:00,72.3,62.0,29.86,NW,315,3.0,7.0,71,0.00,,,0.00,682,weatherlink.com 1.10,2013-06-10 15:16:00,
2013-06-10 10:31:00,74.9,62.0,29.85,NW,320,2.0,5.0,65,0.00,,,0.00,717,weatherlink.com 1.10,2013-06-10 15:31:00,
2013-06-10 10:46:00,75.6,63.0,29.85,NW,314,1.0,4.0,65,0.00,,,0.00,754,weatherlink.com 1.10,2013-06-10 15:46:00,
2013-06-10 11:01:00,75.3,63.0,29.85,NW,319,6.0,6.0,65,0.00,,,0.00,788,weatherlink.com 1.10,2013-06-10 16:01:00,
2013-06-10 11:16:00,76.0,63.0,29.85,NW,321,0.0,3.0,65,0.00,,,0.00,816,weatherlink.com 1.10,2013-06-10 16:16:00,
2013-06-10 11:31:00,76.3,63.0,29.85,NW,322,0.0,4.0,64,0.00,,,0.00,844,weatherlink.com 1.10,2013-06-10 16:31:00,
2013-06-10 12:31:00,78.8,63.0,29.84,NW,325,1.0,3.0,58,0.00,,,0.00,918,weatherlink.com 1.10,2013-06-10 17:31:00,
2013-06-10 12:46:00,78.7,63.0,29.84,NW,314,2.0,5.0,58,0.00,,,0.00,928,weatherlink.com 1.10,2013-06-10 17:46:00,
2013-06-10 13:01:00,80.0,60.0,29.84,NW,321,0.0,4.0,50,0.00,,,0.00,932,weatherlink.com 1.10,2013-06-10 18:01:00,
2013-06-10 13:16:00,80.6,62.0,29.83,NW,321,1.0,3.0,54,0.00,,,0.00,939,weatherlink.com 1.10,2013-06-10 18:16:00,
2013-06-10 13:31:00,81.6,59.0,29.83,NW,321,1.0,4.0,47,0.00,,,0.00,940,weatherlink.com 1.10,2013-06-10 18:31:00,
2013-06-10 13:46:00,81.6,65.0,29.83,NW,321,1.0,3.0,57,0.00,,,0.00,935,weatherlink.com 1.10,2013-06-10 18:46:00,
2013-06-10 14:01:00,82.3,64.0,29.82,NW,325,1.0,3.0,55,0.00,,,0.00,937,weatherlink.com 1.10,2013-06-10 19:01:00,
2013-06-10 14:16:00,82.7,65.0,29.82,NW,325,1.0,4.0,55,0.00,,,0.00,928,weatherlink.com 1.10,2013-06-10 19:16:00,
2013-06-10 14:31:00,82.5,63.0,29.82,NNW,330,1.0,3.0,51,0.00,,,0.00,916,weatherlink.com 1.10,2013-06-10 19:31:00,
2013-06-10 14:46:00,83.6,61.0,29.82,NNW,339,1.0,3.0,47,0.00,,,0.00,877,weatherlink.com 1.10,2013-06-10 19:46:00,
2013-06-10 15:01:00,83.9,61.0,29.82,NNW,339,1.0,3.0,46,0.00,,,0.00,863,weatherlink.com 1.10,2013-06-10 20:01:00,
2013-06-10 15:31:00,84.8,60.0,29.83,NNW,328,3.0,4.0,43,0.00,,,0.00,854,weatherlink.com 1.10,2013-06-10 20:31:00,
2013-06-10 15:46:00,84.7,61.0,29.82,NNW,328,1.0,3.0,45,0.00,,,0.00,814,weatherlink.com 1.10,2013-06-10 20:46:00,
2013-06-10 16:02:00,85.2,60.0,29.82,NNW,328,1.0,4.0,43,0.00,,,0.00,649,weatherlink.com 1.10,2013-06-10 21:02:00,
2013-06-10 16:17:00,85.0,59.0,29.82,NW,325,1.0,2.0,41,0.00,,,0.00,744,weatherlink.com 1.10,2013-06-10 21:17:00,
2013-06-10 16:32:00,85.4,56.0,29.82,NW,325,1.0,3.0,37,0.00,,,0.00,643,weatherlink.com 1.10,2013-06-10 21:32:00,
2013-06-10 16:47:00,85.1,58.0,29.81,NW,325,0.0,2.0,40,0.00,,,0.00,656,weatherlink.com 1.10,2013-06-10 21:47:00,
2013-06-10 17:02:00,85.4,59.0,29.80,NNW,342,2.0,5.0,41,0.00,,,0.00,642,weatherlink.com 1.10,2013-06-10 22:02:00,
2013-06-10 17:17:00,85.8,61.0,29.79,North,360,1.0,4.0,44,0.00,,,0.00,613,weatherlink.com 1.10,2013-06-10 22:17:00,
2013-06-10 17:32:00,85.5,60.0,29.79,NE,37,0.0,5.0,43,0.00,,,0.00,531,weatherlink.com 1.10,2013-06-10 22:32:00,
2013-06-10 17:47:00,85.5,60.0,29.79,NE,37,2.0,3.0,42,0.00,,,0.00,529,weatherlink.com 1.10,2013-06-10 22:47:00,
2013-06-10 18:02:00,86.6,61.0,29.78,NE,41,1.0,3.0,42,0.00,,,0.00,478,weatherlink.com 1.10,2013-06-10 23:02:00,
2013-06-10 18:17:00,86.5,61.0,29.78,ENE,57,0.0,4.0,42,0.00,,,0.00,427,weatherlink.com 1.10,2013-06-10 23:17:00,
2013-06-10 18:32:00,86.0,62.0,29.77,ENE,59,2.0,5.0,44,0.00,,,0.00,374,weatherlink.com 1.10,2013-06-10 23:32:00,
2013-06-10 18:47:00,85.7,63.0,29.77,ENE,74,1.0,5.0,46,0.00,,,0.00,330,weatherlink.com 1.10,2013-06-10 23:47:00,
2013-06-10 19:02:00,85.5,62.0,29.78,East,90,3.0,6.0,45,0.00,,,0.00,281,weatherlink.com 1.10,2013-06-11 00:02:00,
2013-06-10 19:17:00,84.7,62.0,29.78,East,95,2.0,6.0,46,0.00,,,0.00,237,weatherlink.com 1.10,2013-06-11 00:17:00,
2013-06-10 19:32:00,83.7,61.0,29.78,East,96,0.0,5.0,47,0.00,,,0.00,186,weatherlink.com 1.10,2013-06-11 00:32:00,
2013-06-10 19:47:00,82.9,62.0,29.78,East,96,1.0,3.0,49,0.00,,,0.00,30,weatherlink.com 1.10,2013-06-11 00:47:00,
2013-06-10 20:02:00,81.8,63.0,29.78,East,96,0.0,3.0,53,0.00,,,0.00,25,weatherlink.com 1.10,2013-06-11 01:02:00,
2013-06-10 20:17:00,80.6,64.0,29.77,East,96,0.0,3.0,57,0.00,,,0.00,19,weatherlink.com 1.10,2013-06-11 01:17:00,
2013-06-10 20:32:00,80.2,64.0,29.78,East,96,0.0,5.0,58,0.00,,,0.00,11,weatherlink.com 1.10,2013-06-11 01:32:00,
2013-06-10 20:47:00,79.4,65.0,29.78,East,96,1.0,5.0,61,0.00,,,0.00,0,weatherlink.com 1.10,2013-06-11 01:47:00,
2013-06-10 21:02:00,78.6,65.0,29.78,East,95,0.0,3.0,63,0.00,,,0.00,0,weatherlink.com 1.10,2013-06-11 02:02:00,
2013-06-10 21:17:00,78.2,65.0,29.77,East,96,1.0,5.0,64,0.00,,,0.00,0,weatherlink.com 1.10,2013-06-11 02:17:00,
2013-06-10 21:32:00,77.7,65.0,29.77,East,96,1.0,5.0,66,0.00,,,0.00,0,weatherlink.com 1.10,2013-06-11 02:32:00,
2013-06-10 21:47:00,77.6,65.0,29.77,East,96,0.0,5.0,66,0.00,,,0.00,0,weatherlink.com 1.10,2013-06-11 02:47:00,
2013-06-10 22:02:00,77.3,65.0,29.78,East,96,1.0,5.0,67,0.00,,,0.00,0,weatherlink.com 1.10,2013-06-11 03:02:00,
2013-06-10 22:17:00,77.1,66.0,29.78,East,96,2.0,6.0,68,0.00,,,0.00,0,weatherlink.com 1.10,2013-06-11 03:17:00,
2013-06-10 22:32:00,76.9,66.0,29.78,East,96,1.0,5.0,68,0.00,,,0.00,0,weatherlink.com 1.10,2013-06-11 03:32:00,
2013-06-10 22:47:00,76.8,66.0,29.79,East,96,1.0,5.0,69,0.00,,,0.00,0,weatherlink.com 1.10,2013-06-11 03:47:00,
2013-06-10 23:02:00,76.5,66.0,29.79,East,96,1.0,6.0,69,0.00,,,0.00,0,weatherlink.com 1.10,2013-06-11 04:02:00,
2013-06-10 23:17:00,76.1,66.0,29.78,East,97,2.0,5.0,70,0.00,,,0.00,0,weatherlink.com 1.10,2013-06-11 04:17:00,
2013-06-10 23:32:00,75.9,66.0,29.78,East,96,1.0,6.0,71,0.00,,,0.00,0,weatherlink.com 1.10,2013-06-11 04:32:00,
2013-06-10 23:47:00,75.7,66.0,29.78,ESE,105,2.0,9.0,72,0.00,,,0.00,0,weatherlink.com 1.10,2013-06-11 04:47:00,